Time;durP1;ratioP1;P1;durP2;ratioP2;P2;SDS_P1;SDS_P2;PMS_P1;PMS_P2;Temp;Humidity;BMP_temperature;BMP_pressure;BME280_temperature;BME280_humidity;BME280_pressure;Samples;Min_cycle;Max_cycle;Signal;HPM_P1;HPM_P2
2022/03/12 00:02:04;;;;;;;;;;;;;;;-5.41;59.02;101495.28;6243158;23;19915;-82
2022/03/12 00:04:30;;;;;;;;;;;;;;;-5.45;58.57;101497.78;6210828;23;19970;-82
2022/03/12 00:06:55;;;;;;;;;;;;;;;-5.51;59.32;101503.56;6214007;23;19989;-81
2022/03/12 00:09:21;;;;;;;;;;;;;;;-5.51;59.07;101500.88;6214665;23;20362;-82
2022/03/12 00:11:51;;;;;;;;;;;;;;;-5.45;58.12;101496.97;6214719;23;19970;-82
2022/03/12 00:14:20;;;;;;;;;;;;;;;-5.51;57.78;101500.88;6214911;23;19916;-81
2022/03/12 00:16:46;;;;;;;;;;;;;;;-5.62;57.96;101500.22;6214287;23;19935;-82
2022/03/12 00:19:12;;;;;;;;;;;;;;;-5.58;58.33;101503.16;6214839;23;19916;-82
2022/03/12 00:21:42;;;;;;;;;;;;;;;-5.49;57.74;101501.34;6214578;23;20348;-82
2022/03/12 00:24:10;;;;;;;;;;;;;;;-5.45;56.21;101489.66;6214696;23;19996;-81
2022/03/12 00:26:38;;;;;;;;;;;;;;;-5.38;54.87;101495.53;6213915;23;19947;-82
2022/03/12 00:29:04;;;;;;;;;;;;;;;-5.28;54.43;101499.94;6214525;23;19911;-82
2022/03/12 00:31:29;;;;;;;;;;;;;;;-5.19;54.20;101496.28;6214347;23;19947;-81
2022/03/12 00:33:56;;;;;;;;;;;;;;;-4.94;53.95;101496.94;6188192;23;19923;-82
2022/03/12 00:36:21;;;;;;;;;;;;;;;-4.95;54.00;101495.31;6187749;23;19927;-82
2022/03/12 00:38:46;;;;;;;;;;;;;;;-4.99;54.52;101499.72;6215015;23;19916;-82
2022/03/12 00:41:12;;;;;;;;;;;;;;;-4.95;54.04;101498.03;6214786;23;19912;-82
2022/03/12 00:43:38;;;;;;;;;;;;;;;-5.14;56.03;101500.00;6213972;23;20656;-82
2022/03/12 00:46:05;;;;;;;;;;;;;;;-5.27;56.60;101504.25;6214635;23;19916;-83
2022/03/12 00:48:31;;;;;;;;;;;;;;;-5.51;57.78;101506.28;6214491;23;19912;-78
2022/03/12 00:50:56;;;;;;;;;;;;;;;-5.64;59.17;101510.50;6214714;23;19951;-79
2022/03/12 00:53:22;;;;;;;;;;;;;;;-5.67;59.47;101520.03;6214345;23;19916;-78
2022/03/12 00:55:47;;;;;;;;;;;;;;;-5.68;59.78;101518.41;6214540;23;19967;-79
2022/03/12 00:58:13;;;;;;;;;;;;;;;-5.66;59.87;101516.19;6214336;23;20273;-78
2022/03/12 01:00:38;;;;;;;;;;;;;;;-5.68;59.80;101521.13;6214578;23;19931;-78
2022/03/12 01:03:04;;;;;;;;;;;;;;;-5.89;60.93;101517.13;6192958;23;19978;-82
2022/03/12 01:05:40;;;;;;;;;;;;;;;-5.94;60.88;101519.88;6244430;23;19922;-82
2022/03/12 01:08:05;;;;;;;;;;;;;;;-5.90;60.75;101507.38;6244905;23;19915;-82
2022/03/12 01:10:31;;;;;;;;;;;;;;;-5.91;60.26;101513.91;6244407;23;19981;-82
2022/03/12 01:12:56;;;;;;;;;;;;;;;-6.01;61.07;101507.81;6244524;23;20381;-82
2022/03/12 01:15:25;;;;;;;;;;;;;;;-6.08;60.98;101513.59;6244545;23;19938;-82
2022/03/12 01:17:53;;;;;;;;;;;;;;;-6.28;61.76;101517.34;6244590;22;20212;-82
2022/03/12 01:20:20;;;;;;;;;;;;;;;-6.32;61.97;101519.03;6244742;23;19916;-82
2022/03/12 01:22:45;;;;;;;;;;;;;;;-6.26;61.65;101528.66;6217604;23;19922;-78
2022/03/12 01:25:10;;;;;;;;;;;;;;;-6.28;61.30;101530.06;6244487;23;19920;-82
2022/03/12 01:27:36;;;;;;;;;;;;;;;-6.34;62.91;101532.00;6243765;23;20044;-78
2022/03/12 01:30:02;;;;;;;;;;;;;;;-6.28;63.00;101528.16;6244475;23;19916;-78
2022/03/12 01:32:28;;;;;;;;;;;;;;;-6.15;62.86;101529.34;6244001;23;19922;-78
2022/03/12 01:34:53;;;;;;;;;;;;;;;-6.12;62.11;101528.78;6244385;23;19915;-78
2022/03/12 01:37:20;;;;;;;;;;;;;;;-6.13;62.16;101532.56;6244312;23;20290;-78
2022/03/12 01:39:49;;;;;;;;;;;;;;;-6.17;62.02;101536.94;6217225;23;19919;-78
2022/03/12 01:42:14;;;;;;;;;;;;;;;-6.24;61.85;101541.88;6244367;23;19912;-77
2022/03/12 01:44:40;;;;;;;;;;;;;;;-6.36;62.92;101545.00;6244177;23;19915;-82
2022/03/12 01:47:07;;;;;;;;;;;;;;;-6.38;63.14;101540.94;6244306;23;20370;-82
2022/03/12 01:49:32;;;;;;;;;;;;;;;-6.45;63.96;101541.31;6243752;23;20334;-82
2022/03/12 01:51:57;;;;;;;;;;;;;;;-6.45;63.38;101540.50;6243873;23;19922;-82
2022/03/12 01:54:24;;;;;;;;;;;;;;;-6.42;63.24;101545.31;6244091;23;19922;-81
2022/03/12 01:56:52;;;;;;;;;;;;;;;-6.52;63.04;101534.66;6244100;23;19961;-81
2022/03/12 01:59:18;;;;;;;;;;;;;;;-6.61;63.89;101543.38;6244220;23;19911;-81
2022/03/12 02:01:46;;;;;;;;;;;;;;;-6.61;63.29;101537.97;6208922;22;19928;-81
2022/03/12 02:04:12;;;;;;;;;;;;;;;-6.54;63.41;101536.81;6213091;23;19919;-80
2022/03/12 02:06:43;;;;;;;;;;;;;;;-6.51;63.50;101530.88;6244338;23;19922;-81
2022/03/12 02:09:09;;;;;;;;;;;;;;;-6.41;64.96;101541.53;6217750;23;20046;-81
2022/03/12 02:11:39;;;;;;;;;;;;;;;-6.34;64.84;101531.19;6244749;23;19922;-82
2022/03/12 02:14:08;;;;;;;;;;;;;;;-6.24;65.19;101533.78;6217225;23;19915;-82
2022/03/12 02:16:34;;;;;;;;;;;;;;;-6.14;65.35;101531.75;6244970;23;19919;-81
2022/03/12 02:19:00;;;;;;;;;;;;;;;-5.99;65.33;101538.88;6244096;23;19915;-81
2022/03/12 02:21:38;;;;;;;;;;;;;;;-5.90;65.53;101537.13;6244846;23;19916;-81
2022/03/12 02:24:06;;;;;;;;;;;;;;;-5.75;66.34;101530.69;6243853;23;19919;-81
2022/03/12 02:26:32;;;;;;;;;;;;;;;-5.68;65.95;101540.03;6244311;23;19915;-81
2022/03/12 02:28:57;;;;;;;;;;;;;;;-5.70;65.07;101530.63;6243562;23;19915;-81
2022/03/12 02:31:25;;;;;;;;;;;;;;;-5.68;64.52;101539.22;6244547;23;19969;-81
2022/03/12 02:33:50;;;;;;;;;;;;;;;-5.68;64.48;101534.63;6243587;23;19916;-81
2022/03/12 02:36:18;;;;;;;;;;;;;;;-5.70;64.28;101536.03;6244615;23;19922;-81
2022/03/12 02:38:44;;;;;;;;;;;;;;;-5.73;63.53;101547.41;6243999;23;19934;-81
2022/03/12 02:41:13;;;;;;;;;;;;;;;-5.72;62.70;101546.31;6217465;23;20002;-81
2022/03/12 02:43:43;;;;;;;;;;;;;;;-5.73;62.28;101547.41;6244010;23;19969;-81
2022/03/12 02:46:08;;;;;;;;;;;;;;;-5.66;62.53;101548.63;6244002;23;19926;-81
2022/03/12 02:48:34;;;;;;;;;;;;;;;-5.60;62.14;101546.69;6243711;23;19916;-81
2022/03/12 02:50:59;;;;;;;;;;;;;;;-5.58;61.47;101549.09;6244133;23;19916;-81
2022/03/12 02:53:25;;;;;;;;;;;;;;;-5.58;61.37;101546.41;6217279;23;19915;-81
2022/03/12 02:55:51;;;;;;;;;;;;;;;-5.58;60.32;101549.91;6244035;23;19986;-81
2022/03/12 02:58:17;;;;;;;;;;;;;;;-5.54;58.72;101539.31;6244092;23;20345;-77
2022/03/12 03:00:42;;;;;;;;;;;;;;;-5.57;58.72;101546.09;6244037;23;20330;-78
2022/03/12 03:03:08;;;;;;;;;;;;;;;-5.59;58.66;101542.06;6236959;23;19915;-77
2022/03/12 03:05:46;;;;;;;;;;;;;;;-5.61;58.50;101545.06;6244071;23;20348;-77
2022/03/12 03:08:15;;;;;;;;;;;;;;;-5.62;58.65;101553.47;6217513;23;19916;-78
2022/03/12 03:10:41;;;;;;;;;;;;;;;-5.66;58.67;101548.63;6244027;23;19915;-77
2022/03/12 03:13:16;;;;;;;;;;;;;;;-5.70;58.04;101558.44;6216455;23;19939;-78
2022/03/12 03:15:49;;;;;;;;;;;;;;;-5.68;57.06;101547.34;6243995;23;19923;-77
2022/03/12 03:18:15;;;;;;;;;;;;;;;-5.62;56.02;101537.25;6243451;23;19924;-77
2022/03/12 03:20:41;;;;;;;;;;;;;;;-5.51;55.74;101538.72;6244028;23;19923;-78
2022/03/12 03:23:08;;;;;;;;;;;;;;;-5.45;55.56;101537.53;6243398;23;19915;-78
2022/03/12 03:25:33;;;;;;;;;;;;;;;-5.41;53.22;101535.84;6217329;23;19916;-78
2022/03/12 03:27:59;;;;;;;;;;;;;;;-5.39;54.49;101531.78;6241695;23;19916;-77
2022/03/12 03:30:25;;;;;;;;;;;;;;;-5.37;54.76;101536.88;6243884;23;19926;-77
2022/03/12 03:32:51;;;;;;;;;;;;;;;-5.40;54.37;101540.16;6216669;23;19915;-77
2022/03/12 03:35:16;;;;;;;;;;;;;;;-5.43;54.69;101543.47;6243965;23;20257;-77
2022/03/12 03:37:42;;;;;;;;;;;;;;;-5.41;54.68;101536.66;6217206;23;19973;-77
2022/03/12 03:40:08;;;;;;;;;;;;;;;-5.37;54.46;101544.97;6243502;23;19911;-77
2022/03/12 03:42:33;;;;;;;;;;;;;;;-5.37;54.39;101544.97;6245354;23;19912;-77
2022/03/12 03:45:02;;;;;;;;;;;;;;;-5.34;53.59;101541.72;6245750;23;19939;-77
2022/03/12 03:47:28;;;;;;;;;;;;;;;-5.28;53.31;101537.81;6245630;23;19935;-77
2022/03/12 03:49:53;;;;;;;;;;;;;;;-5.22;53.45;101542.88;6218675;23;19911;-77
2022/03/12 03:52:19;;;;;;;;;;;;;;;-5.21;53.73;101538.22;6245749;23;20309;-77
2022/03/12 03:54:45;;;;;;;;;;;;;;;-5.15;52.37;101530.84;6245719;23;19911;-77
2022/03/12 03:57:13;;;;;;;;;;;;;;;-4.98;52.04;101537.31;6245677;23;19926;-78
2022/03/12 03:59:38;;;;;;;;;;;;;;;-4.68;50.92;101543.28;6245706;23;19916;-78
2022/03/12 04:02:04;;;;;;;;;;;;;;;-4.52;50.44;101547.31;6218623;23;19924;-77
2022/03/12 04:04:35;;;;;;;;;;;;;;;-4.50;50.62;101537.00;6218719;23;19962;-77
2022/03/12 04:07:02;;;;;;;;;;;;;;;-4.55;51.00;101546.03;6245571;23;19990;-77
2022/03/12 04:09:27;;;;;;;;;;;;;;;-4.63;51.16;101551.31;6245265;23;19970;-77
2022/03/12 04:11:53;;;;;;;;;;;;;;;-4.65;51.03;101548.13;6218605;23;19922;-77
2022/03/12 04:14:18;;;;;;;;;;;;;;;-4.49;50.47;101549.44;6245488;23;20011;-77
2022/03/12 04:16:44;;;;;;;;;;;;;;;-4.36;49.92;101548.63;6245711;23;19924;-77
2022/03/12 04:19:10;;;;;;;;;;;;;;;-4.24;49.63;101543.53;6245220;23;19922;-77
2022/03/12 04:21:36;;;;;;;;;;;;;;;-4.09;49.22;101543.25;6193877;23;19990;-77
2022/03/12 04:24:01;;;;;;;;;;;;;;;-4.00;48.95;101546.81;6245071;23;19947;-77
2022/03/12 04:26:27;;;;;;;;;;;;;;;-3.97;49.01;101551.66;6245787;23;19947;-77
2022/03/12 04:28:53;;;;;;;;;;;;;;;-3.93;48.95;101552.66;6245310;23;19947;-77
2022/03/12 04:31:18;;;;;;;;;;;;;;;-3.91;48.99;101544.19;6245076;23;20249;-77
2022/03/12 04:33:44;;;;;;;;;;;;;;;-3.89;49.15;101542.81;6245139;23;19923;-77
2022/03/12 04:36:09;;;;;;;;;;;;;;;-3.94;49.49;101528.56;6245083;23;19912;-77
2022/03/12 04:38:35;;;;;;;;;;;;;;;-3.97;49.48;101540.81;6245334;23;19919;-77
2022/03/12 04:41:01;;;;;;;;;;;;;;;-3.98;49.69;101544.63;6244824;23;19947;-77
2022/03/12 04:43:26;;;;;;;;;;;;;;;-3.94;49.21;101540.19;6244930;23;19919;-77
2022/03/12 04:45:52;;;;;;;;;;;;;;;-3.92;49.37;101542.63;6245534;23;20365;-77
2022/03/12 04:48:18;;;;;;;;;;;;;;;-3.99;49.57;101543.00;6244586;23;19912;-77
2022/03/12 04:50:44;;;;;;;;;;;;;;;-4.02;49.80;101546.34;6245365;23;19916;-77
2022/03/12 04:53:09;;;;;;;;;;;;;;;-4.16;50.17;101550.16;6245257;23;20340;-78
2022/03/12 04:55:37;;;;;;;;;;;;;;;-4.28;50.83;101551.44;6245421;23;20407;-77
2022/03/12 04:58:04;;;;;;;;;;;;;;;-4.35;51.04;101556.47;6244595;23;19912;-77
2022/03/12 05:00:30;;;;;;;;;;;;;;;-4.44;51.68;101558.25;6245094;23;19987;-77
2022/03/12 05:02:55;;;;;;;;;;;;;;;-4.55;52.04;101550.63;6244259;23;19931;-77
2022/03/12 05:05:21;;;;;;;;;;;;;;;-4.63;52.41;101559.44;6245157;23;19937;-78
2022/03/12 05:07:47;;;;;;;;;;;;;;;-4.70;52.81;101551.72;6244650;23;19950;-77
2022/03/12 05:10:12;;;;;;;;;;;;;;;-4.79;53.21;101565.13;6244385;23;19911;-77
2022/03/12 05:12:40;;;;;;;;;;;;;;;-4.72;52.87;101557.41;6244895;23;20360;-78
2022/03/12 05:15:06;;;;;;;;;;;;;;;-4.72;53.05;101559.31;6217606;23;19920;-78
2022/03/12 05:17:34;;;;;;;;;;;;;;;-4.73;52.66;101563.94;6244751;23;19918;-77
2022/03/12 05:20:00;;;;;;;;;;;;;;;-4.67;52.83;101561.94;6244522;23;19943;-78
2022/03/12 05:22:25;;;;;;;;;;;;;;;-4.53;52.48;101554.66;6244379;23;19919;-78
2022/03/12 05:24:51;;;;;;;;;;;;;;;-4.53;52.68;101564.69;6244565;23;19915;-78
2022/03/12 05:27:19;;;;;;;;;;;;;;;-4.53;52.69;101562.78;6243848;23;19918;-77
2022/03/12 05:29:47;;;;;;;;;;;;;;;-4.54;53.08;101563.88;6244386;23;19920;-78
2022/03/12 05:32:12;;;;;;;;;;;;;;;-4.53;53.02;101575.53;6244342;23;20406;-78
2022/03/12 05:34:38;;;;;;;;;;;;;;;-4.49;53.37;101568.41;6244535;23;19951;-78
2022/03/12 05:37:08;;;;;;;;;;;;;;;-4.39;52.85;101573.63;6243831;23;20002;-78
2022/03/12 05:39:34;;;;;;;;;;;;;;;-4.37;52.63;101568.72;6244535;23;19915;-78
2022/03/12 05:42:00;;;;;;;;;;;;;;;-4.33;52.59;101564.31;6244511;23;20282;-77
2022/03/12 05:44:28;;;;;;;;;;;;;;;-4.25;52.61;101561.72;6244722;23;19958;-78
2022/03/12 05:46:53;;;;;;;;;;;;;;;-4.08;52.43;101561.06;6244558;23;19924;-77
2022/03/12 05:49:19;;;;;;;;;;;;;;;-3.97;52.55;101573.34;6243682;23;19911;-78
2022/03/12 05:51:44;;;;;;;;;;;;;;;-3.96;52.27;101574.94;6243165;23;19919;-79
2022/03/12 05:54:11;;;;;;;;;;;;;;;-3.90;52.25;101565.59;6242929;23;19922;-77
2022/03/12 05:56:40;;;;;;;;;;;;;;;-3.86;52.25;101563.06;6243413;23;19923;-78
2022/03/12 05:59:06;;;;;;;;;;;;;;;-3.84;52.49;101569.03;6242932;23;20375;-78
2022/03/12 06:01:31;;;;;;;;;;;;;;;-3.84;52.00;101561.66;6243310;23;19987;-77
2022/03/12 06:04:00;;;;;;;;;;;;;;;-3.82;51.93;101574.94;6242451;23;20269;-78
2022/03/12 06:06:27;;;;;;;;;;;;;;;-3.83;52.14;101574.13;6242804;23;19958;-78
2022/03/12 06:08:58;;;;;;;;;;;;;;;-3.84;51.94;101567.09;6242824;23;19920;-77
2022/03/12 06:11:25;;;;;;;;;;;;;;;-3.81;51.72;101571.13;6243099;23;19922;-78
2022/03/12 06:13:57;;;;;;;;;;;;;;;-3.74;51.71;101582.34;6242532;23;19966;-78
2022/03/12 06:16:26;;;;;;;;;;;;;;;-3.62;51.11;101573.69;6244037;23;19939;-78
2022/03/12 06:18:52;;;;;;;;;;;;;;;-3.53;51.14;101577.28;6192460;23;19923;-77
2022/03/12 06:21:18;;;;;;;;;;;;;;;-3.43;51.20;101577.03;6244005;23;19915;-77
2022/03/12 06:23:44;;;;;;;;;;;;;;;-3.24;50.66;101572.28;6243785;23;19927;-78
2022/03/12 06:26:14;;;;;;;;;;;;;;;-3.04;49.85;101577.22;6243934;23;19915;-76
2022/03/12 06:28:41;;;;;;;;;;;;;;;-2.79;49.74;101580.44;6217392;23;19916;-78
2022/03/12 06:31:07;;;;;;;;;;;;;;;-2.45;49.26;101581.41;6243568;23;19912;-78
2022/03/12 06:33:32;;;;;;;;;;;;;;;-2.09;46.03;101573.09;6245943;23;19938;-77
2022/03/12 06:35:59;;;;;;;;;;;;;;;-1.79;45.72;101579.59;6245251;23;19915;-78
2022/03/12 06:38:26;;;;;;;;;;;;;;;-1.59;44.97;101579.00;6216918;23;19965;-78
2022/03/12 06:40:56;;;;;;;;;;;;;;;-1.37;44.53;101583.47;6244002;23;19915;-77
2022/03/12 06:43:21;;;;;;;;;;;;;;;-1.22;43.82;101585.75;6216783;23;19978;-77
2022/03/12 06:45:47;;;;;;;;;;;;;;;-0.99;44.41;101579.00;6244150;23;19911;-78
2022/03/12 06:48:12;;;;;;;;;;;;;;;-0.78;43.19;101587.31;6243271;23;19915;-78
2022/03/12 06:50:38;;;;;;;;;;;;;;;-0.74;43.19;101582.00;6246852;23;19934;-77
2022/03/12 06:53:03;;;;;;;;;;;;;;;-0.87;43.48;101575.63;6242128;23;20003;-77
2022/03/12 06:55:29;;;;;;;;;;;;;;;-0.69;43.87;101584.56;6243131;23;19994;-78
2022/03/12 06:57:54;;;;;;;;;;;;;;;-0.52;43.95;101587.25;6244363;23;19919;-78
2022/03/12 07:00:24;;;;;;;;;;;;;;;-0.44;44.53;101583.69;6241860;23;19915;-78
2022/03/12 07:02:49;;;;;;;;;;;;;;;-0.36;44.09;101582.88;6240760;23;19915;-78
2022/03/12 07:05:15;;;;;;;;;;;;;;;-0.20;43.49;101578.47;6241756;23;20257;-78
2022/03/12 07:07:40;;;;;;;;;;;;;;;-0.03;43.37;101593.97;6243012;23;19962;-78
2022/03/12 07:10:06;;;;;;;;;;;;;;;-0.09;42.64;101587.91;6245665;23;19937;-80
2022/03/12 07:12:32;;;;;;;;;;;;;;;-0.02;42.41;101592.84;6244057;23;19918;-79
2022/03/12 07:14:58;;;;;;;;;;;;;;;0.08;41.94;101591.69;6215692;23;19998;-79
2022/03/12 07:17:23;;;;;;;;;;;;;;;0.10;41.68;101598.41;6241391;23;19912;-79
2022/03/12 07:19:50;;;;;;;;;;;;;;;0.17;41.42;101598.69;6216712;23;20346;-78
2022/03/12 07:22:15;;;;;;;;;;;;;;;0.21;41.71;101582.44;6216373;23;19965;-79
2022/03/12 07:24:41;;;;;;;;;;;;;;;0.51;41.04;101589.50;6243412;23;19941;-78
2022/03/12 07:27:06;;;;;;;;;;;;;;;0.72;40.79;101593.06;6216379;23;19920;-78
2022/03/12 07:29:32;;;;;;;;;;;;;;;0.82;40.01;101598.09;6242988;23;19915;-77
2022/03/12 07:31:59;;;;;;;;;;;;;;;0.82;40.06;101592.63;6242760;23;20376;-79
2022/03/12 07:34:24;;;;;;;;;;;;;;;0.58;39.28;101600.69;6217557;23;19998;-78
2022/03/12 07:36:50;;;;;;;;;;;;;;;0.69;39.88;101592.94;6245661;23;19941;-78
2022/03/12 07:39:15;;;;;;;;;;;;;;;0.70;39.05;101595.31;6242839;23;20257;-79
2022/03/12 07:41:41;;;;;;;;;;;;;;;0.54;39.11;101602.47;6243372;23;19915;-79
2022/03/12 07:44:09;;;;;;;;;;;;;;;0.77;39.94;101601.03;6242222;23;19916;-79
2022/03/12 07:46:35;;;;;;;;;;;;;;;0.91;38.76;101606.22;6189888;23;19926;-79
2022/03/12 07:49:00;;;;;;;;;;;;;;;0.66;38.86;101605.28;6241901;23;19911;-79
2022/03/12 07:51:27;;;;;;;;;;;;;;;0.67;38.90;101612.34;6241990;23;19922;-79
2022/03/12 07:53:53;;;;;;;;;;;;;;;0.89;38.70;101609.28;6241145;23;19919;-79
2022/03/12 07:56:20;;;;;;;;;;;;;;;1.28;38.63;101599.00;6240245;23;19915;-79
2022/03/12 07:58:46;;;;;;;;;;;;;;;1.68;37.71;101602.75;6215377;23;19961;-80
2022/03/12 08:01:11;;;;;;;;;;;;;;;1.80;37.38;101604.72;6214658;23;19915;-79
2022/03/12 08:03:37;;;;;;;;;;;;;;;1.67;37.45;101606.63;6215053;23;19923;-79
2022/03/12 08:06:06;;;;;;;;;;;;;;;1.73;36.56;101599.81;6241351;23;19927;-79
2022/03/12 08:08:31;;;;;;;;;;;;;;;1.63;37.19;101605.69;6241626;23;19912;-79
2022/03/12 08:13:43;;;;;;;;;;;;;;;1.70;36.08;101605.94;6215137;23;19922;-79
2022/03/12 08:16:09;;;;;;;;;;;;;;;1.70;35.54;101611.41;6242794;23;19920;-79
2022/03/12 08:18:34;;;;;;;;;;;;;;;1.91;35.87;101599.59;6243653;23;19963;-79
2022/03/12 08:20:59;;;;;;;;;;;;;;;1.91;36.53;101605.06;6242413;23;19916;-79
2022/03/12 08:23:25;;;;;;;;;;;;;;;2.13;36.84;101607.38;6241700;23;19915;-79
2022/03/12 08:25:50;;;;;;;;;;;;;;;2.06;35.33;101602.47;6242533;23;19965;-79
2022/03/12 08:28:17;;;;;;;;;;;;;;;2.12;35.94;101605.75;6244099;23;19923;-80
2022/03/12 08:30:43;;;;;;;;;;;;;;;1.99;35.60;101604.16;6245301;23;19915;-79
2022/03/12 08:33:08;;;;;;;;;;;;;;;2.08;36.16;101602.09;6243463;23;19919;-79
2022/03/12 08:35:34;;;;;;;;;;;;;;;2.10;35.06;101600.66;6243275;23;19922;-79
2022/03/12 08:37:59;;;;;;;;;;;;;;;2.01;34.79;101608.16;6243980;23;19920;-79
2022/03/12 08:40:28;;;;;;;;;;;;;;;2.13;35.04;101596.41;6244411;23;20326;-79
2022/03/12 08:42:53;;;;;;;;;;;;;;;2.19;35.47;101595.03;6244425;23;19915;-80
2022/03/12 08:45:20;;;;;;;;;;;;;;;2.25;34.59;101604.63;6244179;23;19959;-79
2022/03/12 08:47:46;;;;;;;;;;;;;;;1.97;34.60;101598.22;6244032;23;19915;-79
2022/03/12 08:50:11;;;;;;;;;;;;;;;2.23;35.12;101595.94;6242616;23;19915;-79
2022/03/12 08:52:37;;;;;;;;;;;;;;;2.28;36.24;101592.97;6243528;23;19911;-79
2022/03/12 08:55:03;;;;;;;;;;;;;;;2.28;35.96;101595.72;6244880;23;19920;-80
2022/03/12 08:57:29;;;;;;;;;;;;;;;2.51;35.01;101588.63;6245414;23;19916;-79
2022/03/12 08:59:54;;;;;;;;;;;;;;;2.51;34.38;101604.28;6216349;23;19927;-79
2022/03/12 09:02:21;;;;;;;;;;;;;;;2.54;34.52;101600.84;6242686;23;19915;-79
2022/03/12 09:04:46;;;;;;;;;;;;;;;2.57;33.89;101600.16;6242176;23;19919;-80
2022/03/12 09:07:11;;;;;;;;;;;;;;;2.48;34.24;101600.25;6216121;23;19927;-79
2022/03/12 09:09:37;;;;;;;;;;;;;;;2.44;33.49;101598.56;6243470;23;19912;-79
2022/03/12 09:12:03;;;;;;;;;;;;;;;2.45;34.21;101594.69;6244324;23;19920;-79
2022/03/12 09:14:29;;;;;;;;;;;;;;;2.49;34.24;101596.38;6244262;23;19920;-79
2022/03/12 09:16:55;;;;;;;;;;;;;;;2.49;33.22;101588.19;6245080;23;20334;-79
2022/03/12 09:19:20;;;;;;;;;;;;;;;2.75;33.17;101587.78;6244195;23;19942;-79
2022/03/12 09:21:46;;;;;;;;;;;;;;;2.92;32.04;101594.91;6245181;23;19915;-80
2022/03/12 09:24:11;;;;;;;;;;;;;;;3.07;30.93;101585.97;6244372;23;19916;-80
2022/03/12 09:26:37;;;;;;;;;;;;;;;3.21;30.11;101583.63;6245018;23;19927;-79
2022/03/12 09:29:03;;;;;;;;;;;;;;;2.89;30.15;101593.69;6243860;23;20399;-79
2022/03/12 09:31:28;;;;;;;;;;;;;;;2.83;30.24;101592.34;6217938;23;19912;-79
2022/03/12 09:33:54;;;;;;;;;;;;;;;2.93;31.72;101588.28;6192196;23;19950;-79
2022/03/12 09:36:19;;;;;;;;;;;;;;;2.99;29.13;101584.97;6243992;23;19923;-80
2022/03/12 09:38:45;;;;;;;;;;;;;;;3.01;29.30;101581.88;6244204;23;19995;-80
2022/03/12 09:41:11;;;;;;;;;;;;;;;3.15;29.71;101582.28;6244254;23;19923;-80
2022/03/12 09:43:36;;;;;;;;;;;;;;;3.21;30.15;101578.13;6241504;23;19915;-80
2022/03/12 09:46:02;;;;;;;;;;;;;;;3.54;30.00;101566.88;6243038;23;19990;-80
2022/03/12 09:48:27;;;;;;;;;;;;;;;3.78;29.58;101571.41;6243413;23;19931;-80
2022/03/12 09:50:53;;;;;;;;;;;;;;;3.47;28.64;101561.19;6243363;23;19920;-80
2022/03/12 09:53:18;;;;;;;;;;;;;;;3.39;28.13;101562.97;6243687;23;19916;-80
2022/03/12 09:55:44;;;;;;;;;;;;;;;3.59;28.46;101561.13;6243569;23;19922;-79
2022/03/12 09:58:09;;;;;;;;;;;;;;;3.92;28.88;101560.78;6243612;23;19943;-79
2022/03/12 10:00:34;;;;;;;;;;;;;;;3.98;26.87;101559.34;6241553;23;19922;-79
2022/03/12 10:03:00;;;;;;;;;;;;;;;3.99;26.92;101569.19;6243634;23;19974;-80
2022/03/12 10:05:27;;;;;;;;;;;;;;;3.94;25.47;101551.03;6242658;23;19925;-79
2022/03/12 10:07:52;;;;;;;;;;;;;;;3.70;26.86;101554.75;6243390;23;19942;-79
2022/03/12 10:10:19;;;;;;;;;;;;;;;3.89;26.47;101561.47;6243689;23;19916;-79
2022/03/12 10:12:46;;;;;;;;;;;;;;;3.89;25.99;101547.75;6243231;23;20337;-79
2022/03/12 10:15:12;;;;;;;;;;;;;;;4.14;26.28;101540.91;6216638;23;19915;-79
2022/03/12 10:17:37;;;;;;;;;;;;;;;4.12;26.43;101548.72;6243467;23;19915;-79
2022/03/12 10:20:05;;;;;;;;;;;;;;;4.23;25.62;101527.78;6216553;23;19991;-79
2022/03/12 10:22:32;;;;;;;;;;;;;;;4.65;25.25;101534.19;6243153;23;20405;-79
2022/03/12 10:24:57;;;;;;;;;;;;;;;4.76;25.01;101531.69;6243249;23;19960;-79
2022/03/12 10:27:23;;;;;;;;;;;;;;;4.58;25.59;101523.06;6191698;23;19911;-79
2022/03/12 10:29:49;;;;;;;;;;;;;;;5.06;25.74;101526.38;6242943;23;20257;-80
2022/03/12 10:32:24;;;;;;;;;;;;;;;4.91;25.39;101530.00;6242939;23;19926;-79
2022/03/12 10:34:53;;;;;;;;;;;;;;;4.89;24.29;101521.34;6216618;23;20253;-79
2022/03/12 10:37:25;;;;;;;;;;;;;;;5.12;23.95;101522.19;6244603;23;19998;-83
2022/03/12 10:40:08;;;;;;;;;;;;;;;4.90;23.96;101522.91;6217463;23;20261;-83
2022/03/12 10:42:34;;;;;;;;;;;;;;;5.21;24.39;101519.22;6220861;23;19995;-84
2022/03/12 10:45:09;;;;;;;;;;;;;;;5.57;23.32;101519.50;6268852;23;19915;-84
2022/03/12 10:47:39;;;;;;;;;;;;;;;5.16;22.72;101514.81;6217779;23;19919;-83
2022/03/12 10:50:05;;;;;;;;;;;;;;;5.08;23.47;101518.56;6243778;23;20093;-83
2022/03/12 10:52:32;;;;;;;;;;;;;;;5.13;23.90;101510.03;6244000;23;20249;-83
2022/03/12 10:55:10;;;;;;;;;;;;;;;4.79;23.89;101510.91;6245009;23;19916;-83
2022/03/12 10:57:36;;;;;;;;;;;;;;;4.77;24.62;101507.75;6217610;23;19922;-83
2022/03/12 11:00:01;;;;;;;;;;;;;;;5.14;24.95;101487.66;6243903;23;19939;-83
2022/03/12 11:02:28;;;;;;;;;;;;;;;5.58;24.16;101499.03;6244784;23;19916;-84
2022/03/12 11:04:53;;;;;;;;;;;;;;;5.83;22.75;101495.88;6246231;23;19974;-83
2022/03/12 11:07:23;;;;;;;;;;;;;;;5.98;23.84;101483.97;6245715;23;20259;-84
2022/03/12 11:09:48;;;;;;;;;;;;;;;6.38;24.05;101484.16;6259052;23;19939;-83
2022/03/12 11:12:30;;;;;;;;;;;;;;;6.42;22.82;101473.97;6260592;23;19989;-83
2022/03/12 11:15:02;;;;;;;;;;;;;;;6.51;22.80;101468.97;6249668;22;19922;-84
2022/03/12 11:17:27;;;;;;;;;;;;;;;6.68;24.57;101469.53;6243002;23;20334;-84
2022/03/12 11:19:57;;;;;;;;;;;;;;;6.79;22.79;101462.22;6242146;23;19998;-84
2022/03/12 11:22:22;;;;;;;;;;;;;;;6.92;21.60;101458.00;6243179;23;19932;-84
2022/03/12 11:24:49;;;;;;;;;;;;;;;6.78;21.39;101455.91;6239961;23;20248;-83
2022/03/12 11:27:28;;;;;;;;;;;;;;;6.69;21.52;101446.31;6188174;23;19920;-83
2022/03/12 11:30:15;;;;;;;;;;;;;;;6.85;22.18;101449.66;6213456;23;19950;-84
2022/03/12 11:32:46;;;;;;;;;;;;;;;6.87;19.26;101452.84;6214637;23;19983;-83
2022/03/12 11:35:15;;;;;;;;;;;;;;;6.97;19.55;101454.91;6215834;23;19922;-84
2022/03/12 11:37:42;;;;;;;;;;;;;;;7.21;20.10;101440.56;6215542;23;20310;-84
2022/03/12 11:40:14;;;;;;;;;;;;;;;7.01;19.56;101442.75;6215008;23;19920;-84
2022/03/12 11:42:41;;;;;;;;;;;;;;;6.21;20.66;101450.84;6242515;23;20448;-84
2022/03/12 11:45:09;;;;;;;;;;;;;;;6.63;21.24;101442.34;6240384;23;19912;-84
2022/03/12 11:47:37;;;;;;;;;;;;;;;6.90;21.04;101436.34;6241571;23;19951;-84
2022/03/12 11:50:12;;;;;;;;;;;;;;;7.08;21.02;101436.50;6214961;23;20242;-85
2022/03/12 11:52:37;;;;;;;;;;;;;;;6.07;22.36;101434.91;6242583;23;20005;-85
2022/03/12 11:55:06;;;;;;;;;;;;;;;6.07;23.81;101434.91;6241562;23;20249;-84
2022/03/12 11:57:32;;;;;;;;;;;;;;;6.32;23.60;101430.53;6241775;23;19919;-83
2022/03/12 11:59:58;;;;;;;;;;;;;;;6.24;23.81;101426.09;6213808;23;19916;-85
2022/03/12 12:02:24;;;;;;;;;;;;;;;6.20;22.41;101425.25;6213237;23;20318;-85
2022/03/12 12:04:52;;;;;;;;;;;;;;;5.89;22.72;101412.63;6216413;23;19926;-85
2022/03/12 12:07:20;;;;;;;;;;;;;;;5.71;23.27;101419.00;6217744;23;20001;-86
2022/03/12 12:09:45;;;;;;;;;;;;;;;6.13;23.39;101414.16;6216679;23;19915;-84
2022/03/12 12:12:12;;;;;;;;;;;;;;;6.60;23.50;101405.25;6216359;23;19995;-85
2022/03/12 12:14:41;;;;;;;;;;;;;;;6.49;23.09;101407.91;6242945;23;19916;-85
2022/03/12 12:17:06;;;;;;;;;;;;;;;6.31;23.68;101404.13;6243174;23;19919;-86
2022/03/12 12:19:32;;;;;;;;;;;;;;;6.59;23.74;101403.69;6216645;23;19920;-86
2022/03/12 12:21:57;;;;;;;;;;;;;;;6.81;24.31;101393.66;6216420;23;19915;-85
2022/03/12 12:24:23;;;;;;;;;;;;;;;7.26;24.17;101390.56;6243205;23;19911;-85
2022/03/12 12:27:01;;;;;;;;;;;;;;;7.36;22.95;101387.06;6215748;23;19915;-85
2022/03/12 12:29:45;;;;;;;;;;;;;;;6.82;22.80;101368.47;6240211;23;19990;-84
2022/03/12 12:32:11;;;;;;;;;;;;;;;6.87;24.07;101386.66;6242889;23;19915;-86
2022/03/12 12:34:40;;;;;;;;;;;;;;;7.12;23.76;101382.13;6242837;23;19915;-85
2022/03/12 12:37:06;;;;;;;;;;;;;;;7.10;23.30;101372.66;6193675;23;19990;-83
2022/03/12 12:39:33;;;;;;;;;;;;;;;6.84;22.55;101384.63;6216302;23;19943;-83
2022/03/12 12:42:01;;;;;;;;;;;;;;;6.38;23.18;101382.19;6242570;23;19919;-83